Time;durP1;ratioP1;P1;durP2;ratioP2;P2;SDS_P1;SDS_P2;PMS_P1;PMS_P2;Temp;Humidity;BMP_temperature;BMP_pressure;BME280_temperature;BME280_humidity;BME280_pressure;Samples;Min_cycle;Max_cycle;Signal;HPM_P1;HPM_P2
2022/09/29 00:01:32;;;;;;;2.00;1.10;;;9.30;66.50;;;;;;5091287;28;20043;-69
2022/09/29 00:03:58;;;;;;;1.63;1.00;;;9.20;66.60;;;;;;5090779;28;20591;-69
2022/09/29 00:06:23;;;;;;;2.17;1.08;;;9.20;66.80;;;;;;5091137;28;20641;-69
2022/09/29 00:08:49;;;;;;;1.55;0.90;;;9.20;67.10;;;;;;5091336;28;20081;-69
2022/09/29 00:11:17;;;;;;;1.45;0.95;;;9.20;67.70;;;;;;5092736;28;20059;-69
2022/09/29 00:13:44;;;;;;;1.60;1.00;;;9.20;67.40;;;;;;5077726;28;20032;-69
2022/09/29 00:16:10;;;;;;;1.70;1.00;;;9.10;67.40;;;;;;5094660;28;20036;-69
2022/09/29 00:18:36;;;;;;;2.22;1.38;;;9.10;67.50;;;;;;5094574;28;20093;-69
2022/09/29 00:21:01;;;;;;;1.40;1.10;;;9.10;67.60;;;;;;5094747;28;20040;-69
2022/09/29 00:23:28;;;;;;;1.70;1.20;;;9.10;67.70;;;;;;5077537;28;20040;-69
2022/09/29 00:26:11;;;;;;;1.52;1.27;;;9.10;67.80;;;;;;5081484;28;20075;-69
2022/09/29 00:28:39;;;;;;;1.73;1.27;;;9.10;67.70;;;;;;5108115;28;20040;-69
2022/09/29 00:31:07;;;;;;;2.15;1.55;;;9.10;67.70;;;;;;5073958;28;20067;-69
2022/09/29 00:33:34;;;;;;;1.92;1.30;;;9.10;68.10;;;;;;5082968;28;20479;-69
2022/09/29 00:36:06;;;;;;;1.60;1.13;;;9.00;67.70;;;;;;5064923;28;20438;-69
2022/09/29 00:38:33;;;;;;;2.13;1.30;;;9.00;67.70;;;;;;5074643;28;20384;-69
2022/09/29 00:40:59;;;;;;;2.72;1.80;;;9.00;67.70;;;;;;5075312;28;20044;-69
2022/09/29 00:43:53;;;;;;;1.73;1.30;;;9.00;67.80;;;;;;5092606;28;20032;-69
2022/09/29 00:46:25;;;;;;;2.72;1.42;;;9.00;67.80;;;;;;5079595;28;20036;-69
2022/09/29 00:48:54;;;;;;;1.80;1.40;;;9.00;67.90;;;;;;5073677;28;20036;-69
2022/09/29 00:51:20;;;;;;;1.70;1.40;;;9.00;68.00;;;;;;5074038;28;20050;-69
2022/09/29 00:53:48;;;;;;;3.45;2.28;;;9.00;68.00;;;;;;5084540;28;20433;-69
2022/09/29 00:56:15;;;;;;;2.10;1.70;;;8.90;68.00;;;;;;5078664;28;20365;-69
2022/09/29 00:58:46;;;;;;;2.42;1.88;;;8.90;68.00;;;;;;5073248;28;20496;-69
2022/09/29 01:01:13;;;;;;;2.20;1.60;;;8.90;68.10;;;;;;5073418;28;20029;-69
2022/09/29 01:03:44;;;;;;;3.00;2.38;;;8.90;68.20;;;;;;5073962;28;20408;-69
2022/09/29 01:06:18;;;;;;;1.95;1.70;;;8.90;68.30;;;;;;5073440;28;20032;-69
2022/09/29 01:08:47;;;;;;;;;;;8.90;68.20;;;;;;5074322;28;20115;-69
2022/09/29 01:11:15;;;;;;;2.97;2.13;;;8.90;68.00;;;;;;5073111;28;19923;-69
2022/09/29 01:13:41;;;;;;;3.90;2.80;;;8.90;68.10;;;;;;5076603;28;20036;-69
2022/09/29 01:16:07;;;;;;;3.47;2.80;;;8.80;67.90;;;;;;5057013;28;20036;-69
2022/09/29 01:18:33;;;;;;;3.08;2.30;;;8.70;68.20;;;;;;5073525;28;20119;-69
2022/09/29 01:21:24;;;;;;;2.90;2.22;;;8.80;68.00;;;;;;5073687;28;20087;-69
2022/09/29 01:24:27;;;;;;;2.53;1.90;;;8.80;68.30;;;;;;5073633;28;20045;-69
2022/09/29 01:27:04;;;;;;;2.45;2.08;;;8.80;68.40;;;;;;5072948;28;20080;-69
2022/09/29 01:29:48;;;;;;;2.50;1.70;;;8.80;68.60;;;;;;5073526;28;20045;-69
2022/09/29 01:32:55;;;;;;;2.60;2.05;;;8.80;68.60;;;;;;5072806;28;20094;-69
2022/09/29 01:35:47;;;;;;;4.00;1.70;;;8.80;68.60;;;;;;5052844;28;20137;-69
2022/09/29 01:38:26;;;;;;;2.60;1.65;;;8.80;68.40;;;;;;5089334;28;20051;-69
2022/09/29 01:41:29;;;;;;;2.95;1.50;;;8.80;68.40;;;;;;5056282;28;20041;-69
2022/09/29 01:44:07;;;;;;;2.42;1.85;;;8.80;68.30;;;;;;5067134;28;20045;-69
2022/09/29 01:46:41;;;;;;;3.40;2.00;;;8.80;68.30;;;;;;5072777;28;20050;-69
2022/09/29 01:49:09;;;;;;;2.28;1.52;;;8.70;68.10;;;;;;5072690;28;20040;-69
2022/09/29 01:51:45;;;;;;;2.10;1.55;;;8.70;68.10;;;;;;5072703;28;20036;-69
2022/09/29 01:54:19;;;;;;;2.00;1.55;;;8.80;68.60;;;;;;5072427;28;20044;-69
2022/09/29 01:56:58;;;;;;;2.85;1.60;;;8.70;68.10;;;;;;5072572;28;20511;-69
2022/09/29 01:59:46;;;;;;;2.17;1.50;;;8.70;68.00;;;;;;5072779;28;20664;-69
2022/09/29 02:02:35;;;;;;;3.58;1.80;;;8.70;67.90;;;;;;5072630;28;20079;-69
2022/09/29 02:05:06;;;;;;;3.63;1.67;;;8.70;67.80;;;;;;5070259;28;20078;-69
2022/09/29 02:07:45;;;;;;;5.18;2.05;;;8.70;67.70;;;;;;5072238;28;20044;-69
2022/09/29 02:10:16;;;;;;;2.38;1.70;;;8.70;67.60;;;;;;5072321;28;20040;-69
2022/09/29 02:12:43;;;;;;;2.35;2.05;;;8.70;67.50;;;;;;5072460;28;20044;-69
2022/09/29 02:15:13;;;;;;;2.63;1.60;;;8.70;67.50;;;;;;5072226;28;20040;-69
2022/09/29 02:17:44;;;;;;;2.72;1.90;;;8.60;67.40;;;;;;5072092;28;20037;-69
2022/09/29 02:20:11;;;;;;;2.60;1.48;;;8.60;67.40;;;;;;5072228;28;20043;-69
2022/09/29 02:22:39;;;;;;;1.92;1.38;;;8.60;67.40;;;;;;5071715;28;20076;-69
2022/09/29 02:25:10;;;;;;;2.00;1.60;;;8.60;67.40;;;;;;5080705;28;20056;-69
2022/09/29 02:27:35;;;;;;;1.80;1.40;;;8.60;67.60;;;;;;5092517;28;20082;-69
2022/09/29 02:30:01;;;;;;;2.90;1.45;;;8.60;67.60;;;;;;5092563;28;20400;-69
2022/09/29 02:32:29;;;;;;;2.85;1.80;;;8.50;67.60;;;;;;5091760;28;20044;-69
2022/09/29 02:34:56;;;;;;;2.15;1.50;;;8.50;67.60;;;;;;5091555;28;20739;-69
2022/09/29 02:37:39;;;;;;;2.58;1.83;;;8.50;67.70;;;;;;5092066;28;20093;-69
2022/09/29 02:40:36;;;;;;;3.25;2.15;;;8.50;67.70;;;;;;5091976;28;20039;-69
2022/09/29 02:43:04;;;;;;;1.77;1.40;;;8.50;67.40;;;;;;5075018;28;20078;-69
2022/09/29 02:46:12;;;;;;;1.55;1.30;;;8.50;67.50;;;;;;5092255;28;20052;-69
2022/09/29 02:48:52;;;;;;;1.50;1.25;;;8.50;67.60;;;;;;5092219;28;20161;-69
2022/09/29 02:51:22;;;;;;;1.90;1.48;;;8.50;67.70;;;;;;5074815;28;20074;-69
2022/09/29 02:54:11;;;;;;;2.67;1.40;;;8.40;67.70;;;;;;5091604;28;20040;-69
2022/09/29 02:56:59;;;;;;;2.53;1.50;;;8.50;67.60;;;;;;5091653;28;20123;-69
2022/09/29 02:59:49;;;;;;;2.00;1.50;;;8.50;67.50;;;;;;5091860;28;20504;-69
2022/09/29 03:02:21;;;;;;;1.80;1.35;;;8.40;67.30;;;;;;5092296;28;20383;-69
2022/09/29 03:04:47;;;;;;;1.95;1.40;;;8.40;67.30;;;;;;5091640;28;20491;-69
2022/09/29 03:07:12;;;;;;;2.05;1.45;;;8.40;67.30;;;;;;5075240;28;20056;-69
2022/09/29 03:09:38;;;;;;;2.00;1.55;;;8.40;67.20;;;;;;5091347;28;20089;-69
2022/09/29 03:12:04;;;;;;;2.17;1.35;;;8.40;67.10;;;;;;5074870;28;20043;-69
2022/09/29 03:14:29;;;;;;;2.08;1.50;;;8.40;67.10;;;;;;5091450;28;20047;-69
2022/09/29 03:16:55;;;;;;;3.53;1.50;;;8.40;67.50;;;;;;5091884;28;20127;-69
2022/09/29 03:19:21;;;;;;;1.88;1.50;;;8.40;67.00;;;;;;5091073;28;20043;-69
2022/09/29 03:21:46;;;;;;;2.78;2.08;;;8.30;66.90;;;;;;5091654;28;20039;-69
2022/09/29 03:24:12;;;;;;;1.92;1.27;;;8.40;67.00;;;;;;5092146;28;20051;-69
2022/09/29 03:26:37;;;;;;;2.33;1.58;;;8.40;66.90;;;;;;5094963;28;20047;-69
2022/09/29 03:29:03;;;;;;;2.70;1.80;;;8.40;66.90;;;;;;5094340;28;20418;-69
2022/09/29 03:31:29;;;;;;;2.70;1.55;;;8.30;66.90;;;;;;5095340;28;20117;-69
2022/09/29 03:33:54;;;;;;;2.42;1.73;;;8.30;66.90;;;;;;5077472;28;20054;-69
2022/09/29 03:36:20;;;;;;;2.40;1.52;;;8.40;67.00;;;;;;5095050;28;20043;-69
2022/09/29 03:38:46;;;;;;;3.13;1.90;;;8.30;66.90;;;;;;5094010;28;20035;-69
2022/09/29 03:41:11;;;;;;;3.38;2.38;;;8.20;66.90;;;;;;5094993;28;20043;-69
2022/09/29 03:43:37;;;;;;;2.22;1.70;;;8.20;66.90;;;;;;5077703;28;20039;-69
2022/09/29 03:46:03;;;;;;;2.83;1.85;;;8.20;66.80;;;;;;5079510;28;20036;-69
2022/09/29 03:48:30;;;;;;;2.30;1.95;;;8.20;66.70;;;;;;5081794;28;20533;-69
2022/09/29 03:50:56;;;;;;;3.22;2.20;;;8.20;66.80;;;;;;5098616;28;20487;-69
2022/09/29 03:53:22;;;;;;;3.03;1.92;;;8.20;66.80;;;;;;5098481;28;20472;-69
2022/09/29 03:55:48;;;;;;;2.60;1.80;;;8.20;66.80;;;;;;5081595;28;20134;-69
2022/09/29 03:58:14;;;;;;;2.65;1.95;;;8.10;66.70;;;;;;5098693;28;20064;-69
2022/09/29 04:00:40;;;;;;;2.35;1.95;;;8.10;66.60;;;;;;5098427;28;20479;-69
2022/09/29 04:03:06;;;;;;;2.55;1.77;;;8.10;66.50;;;;;;5097922;28;20041;-69
2022/09/29 04:05:37;;;;;;;2.42;1.88;;;8.10;66.40;;;;;;5098040;28;20039;-69
2022/09/29 04:08:03;;;;;;;3.28;2.42;;;8.10;66.40;;;;;;5098396;28;20046;-69
2022/09/29 04:10:29;;;;;;;2.35;1.60;;;8.00;66.30;;;;;;5098332;28;20036;-69
2022/09/29 04:12:55;;;;;;;3.45;1.95;;;8.00;66.30;;;;;;5098245;28;20126;-69
2022/09/29 04:15:21;;;;;;;2.40;1.70;;;8.00;66.40;;;;;;5081160;28;20043;-69
2022/09/29 04:17:46;;;;;;;2.30;1.83;;;8.00;66.50;;;;;;5098322;28;20047;-69
2022/09/29 04:20:12;;;;;;;3.08;2.28;;;8.00;66.50;;;;;;5098566;28;20047;-69
2022/09/29 04:22:38;;;;;;;2.60;1.90;;;8.00;66.50;;;;;;5098023;28;20043;-69
2022/09/29 04:25:04;;;;;;;3.60;2.25;;;8.00;66.50;;;;;;5097269;28;20122;-69
2022/09/29 04:27:29;;;;;;;2.80;2.00;;;7.90;66.50;;;;;;5098123;28;20043;-69
2022/09/29 04:29:55;;;;;;;3.00;1.80;;;7.90;66.40;;;;;;5081113;28;20047;-69
2022/09/29 04:32:21;;;;;;;1.90;1.60;;;7.90;66.30;;;;;;5097990;28;20031;-69
2022/09/29 04:34:47;;;;;;;2.95;1.65;;;7.90;66.40;;;;;;5097378;28;20039;-69
2022/09/29 04:37:13;;;;;;;2.38;1.83;;;7.90;66.50;;;;;;5097881;28;20437;-69
2022/09/29 04:39:39;;;;;;;2.67;2.00;;;7.90;66.50;;;;;;5080585;28;20035;-69
2022/09/29 04:42:05;;;;;;;2.67;2.10;;;7.90;66.40;;;;;;5098065;28;20074;-69
2022/09/29 04:44:30;;;;;;;3.10;2.30;;;7.80;66.40;;;;;;5097028;28;20537;-69
2022/09/29 04:46:56;;;;;;;2.03;1.70;;;7.80;66.30;;;;;;5081022;28;20035;-69
2022/09/29 04:49:22;;;;;;;2.97;2.33;;;7.80;66.20;;;;;;5097259;28;20047;-69
2022/09/29 04:51:48;;;;;;;2.13;1.92;;;7.80;66.20;;;;;;5097833;28;20044;-69
2022/09/29 04:54:13;;;;;;;2.75;1.80;;;7.90;66.20;;;;;;5097075;28;20040;-69
2022/09/29 04:56:39;;;;;;;3.60;1.70;;;7.80;66.60;;;;;;5080558;28;20047;-69
2022/09/29 04:59:05;;;;;;;2.53;1.90;;;7.80;66.30;;;;;;5097404;28;20035;-69
2022/09/29 05:01:31;;;;;;;2.42;1.90;;;7.80;66.30;;;;;;5080540;28;20047;-69
2022/09/29 05:03:57;;;;;;;2.47;1.98;;;7.70;66.40;;;;;;5097091;28;20044;-69
2022/09/29 05:06:23;;;;;;;2.88;2.30;;;7.70;66.50;;;;;;5096938;28;20040;-69
2022/09/29 05:08:48;;;;;;;3.10;2.25;;;7.70;66.50;;;;;;5097247;28;20100;-69
2022/09/29 05:11:14;;;;;;;2.80;1.98;;;7.70;66.60;;;;;;5080062;28;20047;-69
2022/09/29 05:13:40;;;;;;;2.58;2.13;;;7.70;66.60;;;;;;5097030;28;20039;-69
2022/09/29 05:16:06;;;;;;;3.08;2.28;;;7.70;66.70;;;;;;5097089;28;20038;-69
2022/09/29 05:18:32;;;;;;;2.60;2.05;;;7.70;66.70;;;;;;5080202;28;20073;-70
2022/09/29 05:21:06;;;;;;;2.30;1.92;;;7.70;66.70;;;;;;5096685;28;20070;-69
2022/09/29 05:23:32;;;;;;;2.67;2.10;;;7.70;66.70;;;;;;5095554;28;20124;-69
2022/09/29 05:26:04;;;;;;;2.20;1.83;;;7.70;66.70;;;;;;5096265;28;20044;-69
2022/09/29 05:28:30;;;;;;;2.70;2.05;;;7.60;66.60;;;;;;5096798;28;20038;-70
2022/09/29 05:31:04;;;;;;;2.35;1.88;;;7.70;66.60;;;;;;5096716;28;20039;-70
2022/09/29 05:33:30;;;;;;;2.63;1.92;;;7.60;66.40;;;;;;5095894;28;20038;-69
2022/09/29 05:35:56;;;;;;;2.50;1.90;;;7.60;66.30;;;;;;5097581;28;20039;-69
2022/09/29 05:38:22;;;;;;;2.20;1.88;;;7.60;66.40;;;;;;5077720;28;20043;-69
2022/09/29 05:40:49;;;;;;;2.22;1.80;;;7.60;66.40;;;;;;5095799;28;20039;-69
2022/09/29 05:43:15;;;;;;;1.90;1.60;;;7.60;66.40;;;;;;5080522;28;20066;-69
2022/09/29 05:45:41;;;;;;;2.35;1.80;;;7.60;66.50;;;;;;5096042;28;20491;-69
2022/09/29 05:48:07;;;;;;;3.15;1.55;;;7.60;66.60;;;;;;5096446;28;20040;-70
2022/09/29 05:50:40;;;;;;;2.50;2.03;;;7.50;66.60;;;;;;5096211;28;20053;-69
2022/09/29 05:53:06;;;;;;;2.65;2.35;;;7.50;66.70;;;;;;5096566;28;20048;-69
2022/09/29 05:55:32;;;;;;;3.47;2.42;;;7.50;66.50;;;;;;5079291;28;20036;-69
2022/09/29 05:57:58;;;;;;;3.97;2.35;;;7.50;66.40;;;;;;5096419;28;20073;-69
2022/09/29 06:00:24;;;;;;;6.00;2.20;;;7.50;66.30;;;;;;5096107;28;20047;-69
2022/09/29 06:02:49;;;;;;;2.35;1.95;;;7.50;66.20;;;;;;5096265;28;20055;-69
2022/09/29 06:05:15;;;;;;;2.97;2.30;;;7.50;66.10;;;;;;5096075;28;20050;-69
2022/09/29 06:07:41;;;;;;;2.63;2.33;;;7.50;66.00;;;;;;5095762;28;20120;-69
2022/09/29 06:10:07;;;;;;;3.10;2.65;;;7.50;66.00;;;;;;5078967;28;20035;-69
2022/09/29 06:12:35;;;;;;;3.38;2.95;;;7.40;65.90;;;;;;5096016;28;20058;-69
2022/09/29 06:15:02;;;;;;;4.80;3.13;;;7.40;65.90;;;;;;5095196;28;20100;-69
2022/09/29 06:17:27;;;;;;;3.92;2.50;;;7.40;65.90;;;;;;5071803;28;20043;-69
2022/09/29 06:19:53;;;;;;;4.30;3.05;;;7.40;66.10;;;;;;5095173;28;20042;-69
2022/09/29 06:22:19;;;;;;;3.05;2.58;;;7.40;65.70;;;;;;5095253;28;20122;-69
2022/09/29 06:24:44;;;;;;;5.15;2.70;;;7.30;65.70;;;;;;5095015;28;20087;-69
2022/09/29 06:27:10;;;;;;;3.25;2.90;;;7.30;66.00;;;;;;5088142;28;20052;-69
2022/09/29 06:29:36;;;;;;;4.30;3.50;;;7.30;66.20;;;;;;5096253;28;20042;-69
2022/09/29 06:32:02;;;;;;;3.53;3.22;;;7.20;66.40;;;;;;5095424;28;20586;-69
2022/09/29 06:34:27;;;;;;;3.63;3.28;;;7.20;66.50;;;;;;5078636;28;20039;-69
2022/09/29 06:39:37;;;;;;;4.50;3.42;;;7.10;66.70;;;;;;5095442;28;20051;-69
2022/09/29 06:42:04;;;;;;;4.32;3.30;;;7.10;66.90;;;;;;5095425;28;20039;-69
2022/09/29 06:44:29;;;;;;;4.75;3.42;;;7.10;67.30;;;;;;5095427;28;20479;-69
2022/09/29 06:46:56;;;;;;;3.85;3.08;;;7.10;67.50;;;;;;5095346;28;20039;-69
2022/09/29 06:49:22;;;;;;;3.90;3.38;;;7.10;67.70;;;;;;5078471;28;20092;-69
2022/09/29 06:51:48;;;;;;;4.25;3.60;;;7.10;67.90;;;;;;5095711;28;20406;-68
2022/09/29 06:54:17;;;;;;;4.55;3.67;;;7.10;68.10;;;;;;5095733;28;20048;-68
2022/09/29 06:56:49;;;;;;;6.25;4.40;;;7.00;68.10;;;;;;5095266;28;20039;-68
2022/09/29 06:59:16;;;;;;;4.72;4.22;;;7.10;68.40;;;;;;5095375;28;20563;-68
2022/09/29 07:01:42;;;;;;;5.13;4.40;;;7.20;68.60;;;;;;5095465;28;20035;-69
2022/09/29 07:04:08;;;;;;;5.78;5.18;;;7.10;68.80;;;;;;5095304;28;20039;-68
2022/09/29 07:06:34;;;;;;;7.90;6.32;;;7.00;69.20;;;;;;5094665;28;20563;-68
2022/09/29 07:09:00;;;;;;;6.75;6.07;;;7.00;69.50;;;;;;5095321;28;20062;-68
2022/09/29 07:11:26;;;;;;;7.85;6.80;;;7.10;70.20;;;;;;5094918;28;20039;-69
2022/09/29 07:13:53;;;;;;;9.23;7.07;;;7.00;70.60;;;;;;5095220;28;20035;-68
2022/09/29 07:16:19;;;;;;;8.25;7.45;;;7.00;71.10;;;;;;5078339;28;20070;-68
2022/09/29 07:18:45;;;;;;;8.13;7.25;;;7.10;71.90;;;;;;5095008;28;20048;-69
2022/09/29 07:21:17;;;;;;;10.20;7.85;;;7.10;72.00;;;;;;5094982;28;20109;-69
2022/09/29 07:23:44;;;;;;;9.50;8.43;;;7.10;72.40;;;;;;5094528;28;20391;-69
2022/09/29 07:26:10;;;;;;;10.57;8.93;;;7.20;72.80;;;;;;5094839;28;20131;-69
2022/09/29 07:28:36;;;;;;;11.15;9.70;;;7.20;73.00;;;;;;5094996;28;20613;-69
2022/09/29 07:31:07;;;;;;;11.65;9.77;;;7.20;73.30;;;;;;5095045;28;20093;-69
2022/09/29 07:33:33;;;;;;;10.43;9.38;;;7.30;73.60;;;;;;5094506;28;20498;-69
2022/09/29 07:35:59;;;;;;;11.90;9.80;;;7.30;74.00;;;;;;5078248;28;20043;-69
2022/09/29 07:38:26;;;;;;;12.00;10.68;;;7.40;74.30;;;;;;5094354;28;20047;-69
2022/09/29 07:40:52;;;;;;;12.15;10.85;;;7.50;74.50;;;;;;5095061;28;20407;-69
2022/09/29 07:43:17;;;;;;;10.80;9.70;;;7.50;74.70;;;;;;5078149;28;20047;-69
2022/09/29 07:45:48;;;;;;;10.05;9.05;;;7.60;74.90;;;;;;5094611;28;20126;-69
2022/09/29 07:48:14;;;;;;;11.57;10.38;;;7.60;75.20;;;;;;5094618;28;20502;-69
2022/09/29 07:50:40;;;;;;;13.27;10.25;;;7.70;75.30;;;;;;5095015;28;20035;-69
2022/09/29 07:53:06;;;;;;;13.88;10.43;;;7.70;75.50;;;;;;5094593;28;20114;-69
2022/09/29 07:55:31;;;;;;;12.25;10.20;;;7.80;75.80;;;;;;5094898;28;20050;-69
2022/09/29 07:57:57;;;;;;;13.60;10.95;;;7.90;76.10;;;;;;5077353;28;20398;-69
2022/09/29 08:00:23;;;;;;;13.85;11.13;;;7.90;76.70;;;;;;5090380;28;20377;-69
2022/09/29 08:02:48;;;;;;;13.27;11.93;;;8.10;77.30;;;;;;5074750;28;20401;-69
2022/09/29 08:05:14;;;;;;;12.27;10.10;;;8.30;77.90;;;;;;5094700;28;20051;-69
2022/09/29 08:07:40;;;;;;;12.25;11.05;;;8.50;78.40;;;;;;5094268;28;20036;-69
2022/09/29 08:10:06;;;;;;;10.43;9.43;;;8.80;78.70;;;;;;5077734;28;20044;-69
2022/09/29 08:12:32;;;;;;;11.75;9.27;;;9.00;78.60;;;;;;5094219;28;20039;-69
2022/09/29 08:14:57;;;;;;;9.95;8.95;;;9.20;78.30;;;;;;5094853;28;20047;-70
2022/09/29 08:17:23;;;;;;;11.15;9.68;;;9.40;78.10;;;;;;5094752;28;20487;-69
2022/09/29 08:19:49;;;;;;;10.05;8.98;;;9.70;77.80;;;;;;5093596;28;20552;-69
2022/09/29 08:22:14;;;;;;;10.75;9.50;;;9.90;77.70;;;;;;5089132;28;20035;-69
2022/09/29 08:24:41;;;;;;;9.23;7.68;;;10.20;77.50;;;;;;5090273;28;20044;-69
2022/09/29 08:27:07;;;;;;;9.93;7.85;;;10.40;77.50;;;;;;5088424;28;20483;-69
2022/09/29 08:29:33;;;;;;;8.10;7.28;;;10.80;77.40;;;;;;5090083;28;20052;-69
2022/09/29 08:31:59;;;;;;;9.45;7.60;;;11.20;77.00;;;;;;5091559;28;20082;-69
2022/09/29 08:34:24;;;;;;;9.40;7.57;;;11.50;76.20;;;;;;5095298;28;20574;-69
2022/09/29 08:36:50;;;;;;;9.75;7.88;;;11.90;75.00;;;;;;5096723;28;20098;-69
2022/09/29 08:39:19;;;;;;;9.23;7.80;;;12.20;74.00;;;;;;5097178;28;20047;-69
2022/09/29 08:41:56;;;;;;;7.38;6.68;;;12.50;73.30;;;;;;5097949;28;20036;-69
2022/09/29 08:44:50;;;;;;;8.63;7.28;;;12.80;72.60;;;;;;5091567;28;20392;-70
2022/09/29 08:47:35;;;;;;;7.70;6.50;;;13.20;71.90;;;;;;5098038;28;20039;-70
2022/09/29 08:50:09;;;;;;;7.55;6.50;;;13.60;70.80;;;;;;5097203;28;20046;-70
2022/09/29 08:52:42;;;;;;;8.18;6.15;;;13.90;70.30;;;;;;5080748;28;20036;-70
2022/09/29 08:55:14;;;;;;;6.00;5.05;;;14.40;69.10;;;;;;5096035;28;20071;-70
2022/09/29 08:57:40;;;;;;;7.95;5.80;;;14.70;67.40;;;;;;5097484;28;20050;-70
2022/09/29 09:00:11;;;;;;;6.13;5.53;;;15.00;66.00;;;;;;5097234;28;20043;-70
2022/09/29 09:03:05;;;;;;;6.18;5.47;;;15.20;64.80;;;;;;5097558;28;20100;-70
2022/09/29 09:05:51;;;;;;;5.80;4.95;;;15.40;64.30;;;;;;5089260;28;20047;-70
2022/09/29 09:08:40;;;;;;;5.00;4.32;;;15.60;63.80;;;;;;5097471;28;20039;-70
2022/09/29 09:11:24;;;;;;;5.70;4.32;;;15.80;62.90;;;;;;5097342;28;20479;-70
2022/09/29 09:14:06;;;;;;;6.10;4.90;;;15.90;62.50;;;;;;5097378;28;20065;-70
2022/09/29 09:16:50;;;;;;;10.15;3.90;;;16.10;62.70;;;;;;5097242;28;20120;-70
2022/09/29 09:19:31;;;;;;;5.28;4.05;;;16.30;62.40;;;;;;5115359;28;20088;-70
2022/09/29 09:22:17;;;;;;;6.20;4.85;;;16.50;61.50;;;;;;5097293;28;20042;-70
2022/09/29 09:25:12;;;;;;;4.65;3.58;;;16.60;61.00;;;;;;5079655;28;20579;-69
2022/09/29 09:27:43;;;;;;;7.32;4.13;;;16.70;60.10;;;;;;5097042;28;20091;-69
2022/09/29 09:30:17;;;;;;;5.43;4.28;;;16.80;59.70;;;;;;5097107;28;20399;-69
2022/09/29 09:32:56;;;;;;;6.80;4.68;;;16.80;59.70;;;;;;5097281;28;20035;-70
2022/09/29 09:35:45;;;;;;;5.13;4.35;;;16.90;59.00;;;;;;5096709;28;20043;-69
2022/09/29 09:38:57;;;;;;;5.78;3.63;;;16.90;58.80;;;;;;5096833;28;20510;-69
2022/09/29 09:41:24;;;;;;;5.78;3.78;;;17.00;58.90;;;;;;5091269;28;20058;-69
2022/09/29 09:44:09;;;;;;;4.82;4.03;;;17.10;58.70;;;;;;5078353;28;20449;-69
2022/09/29 09:46:38;;;;;;;4.10;3.58;;;17.10;57.60;;;;;;5079872;28;20036;-70
2022/09/29 09:49:17;;;;;;;4.75;3.25;;;17.10;58.10;;;;;;5096545;28;20046;-70
2022/09/29 09:51:53;;;;;;;5.93;4.32;;;17.20;57.30;;;;;;5096799;28;20421;-70
2022/09/29 09:54:41;;;;;;;4.57;3.47;;;17.20;58.00;;;;;;5096269;28;20082;-69
2022/09/29 09:57:25;;;;;;;3.83;3.33;;;17.30;57.80;;;;;;5096475;28;20047;-69
2022/09/29 09:59:59;;;;;;;3.35;2.92;;;17.40;57.70;;;;;;5096602;28;20475;-69
2022/09/29 10:02:24;;;;;;;4.57;2.90;;;17.40;57.30;;;;;;5096587;28;20490;-69
2022/09/29 10:04:52;;;;;;;3.22;2.55;;;17.50;56.70;;;;;;5096113;28;20075;-69
2022/09/29 10:07:24;;;;;;;3.97;2.80;;;17.50;57.20;;;;;;5096114;28;20040;-69
2022/09/29 10:09:50;;;;;;;4.25;3.28;;;17.50;56.70;;;;;;5079243;28;20078;-69
2022/09/29 10:12:23;;;;;;;6.28;3.17;;;17.60;56.20;;;;;;5079330;28;20487;-69
2022/09/29 10:14:59;;;;;;;2.50;2.07;;;17.50;56.40;;;;;;5095997;28;20032;-70
2022/09/29 10:17:38;;;;;;;5.13;3.30;;;17.50;56.50;;;;;;5096356;28;20388;-70
2022/09/29 10:20:06;;;;;;;3.08;2.78;;;17.50;55.80;;;;;;5096004;28;20078;-70
2022/09/29 10:22:32;;;;;;;4.10;2.60;;;17.40;55.50;;;;;;5095773;28;20043;-70
2022/09/29 10:25:18;;;;;;;3.25;2.42;;;17.40;55.70;;;;;;5095708;28;20058;-70
2022/09/29 10:27:56;;;;;;;3.28;2.53;;;17.30;56.30;;;;;;5095755;28;20052;-70
2022/09/29 10:30:34;;;;;;;3.50;2.50;;;17.30;56.30;;;;;;5096091;28;20425;-70
2022/09/29 10:33:05;;;;;;;3.97;2.33;;;17.30;56.40;;;;;;5095881;28;20054;-70
2022/09/29 10:35:42;;;;;;;4.65;2.50;;;17.40;56.30;;;;;;5095896;28;20069;-70
2022/09/29 10:38:22;;;;;;;3.42;2.50;;;17.40;55.90;;;;;;5078659;28;20039;-69
2022/09/29 10:41:02;;;;;;;3.92;3.33;;;17.40;56.30;;;;;;5095976;28;20043;-69
2022/09/29 10:43:42;;;;;;;3.35;2.75;;;17.40;56.20;;;;;;5095370;28;20035;-69
2022/09/29 10:46:33;;;;;;;3.20;2.53;;;17.50;56.00;;;;;;5095574;28;20479;-70
2022/09/29 10:49:15;;;;;;;2.85;2.45;;;17.50;55.80;;;;;;5095424;28;20127;-69
2022/09/29 10:52:28;;;;;;;3.45;2.17;;;17.60;55.60;;;;;;5059290;28;20036;-70
2022/09/29 10:55:00;;;;;;;3.33;2.25;;;17.60;55.60;;;;;;5070090;28;20139;-70
2022/09/29 10:57:27;;;;;;;4.22;2.92;;;17.60;55.70;;;;;;5095199;28;20039;-69
2022/09/29 10:59:55;;;;;;;4.20;3.42;;;17.60;55.40;;;;;;5095702;28;20386;-69
2022/09/29 11:02:43;;;;;;;3.70;2.70;;;17.60;55.00;;;;;;5095132;28;20050;-69
2022/09/29 11:05:19;;;;;;;2.92;2.50;;;17.50;55.00;;;;;;5094702;28;20056;-70
2022/09/29 11:07:47;;;;;;;2.38;2.00;;;17.50;55.40;;;;;;5095231;28;20047;-69
2022/09/29 11:10:36;;;;;;;3.58;2.83;;;17.40;55.60;;;;;;5095360;28;20040;-69
2022/09/29 11:13:20;;;;;;;2.90;2.58;;;17.50;55.30;;;;;;5095009;28;20036;-69
2022/09/29 11:15:46;;;;;;;3.53;2.88;;;17.50;55.50;;;;;;5095055;28;20126;-69
2022/09/29 11:18:22;;;;;;;3.78;3.10;;;17.50;55.20;;;;;;5094814;28;20461;-69
2022/09/29 11:21:15;;;;;;;4.25;2.88;;;17.50;55.10;;;;;;5095002;28;20044;-69
2022/09/29 11:24:11;;;;;;;4.18;3.40;;;17.50;55.00;;;;;;5094758;28;20635;-69
2022/09/29 11:26:51;;;;;;;3.63;2.80;;;17.50;55.50;;;;;;5094931;28;20048;-69
2022/09/29 11:29:23;;;;;;;3.88;3.20;;;17.50;55.60;;;;;;5094511;28;20063;-69
2022/09/29 11:32:13;;;;;;;3.33;2.60;;;17.50;54.80;;;;;;5095157;28;20390;-69
2022/09/29 11:34:42;;;;;;;3.67;3.20;;;17.60;54.80;;;;;;5094884;28;20612;-69
2022/09/29 11:37:22;;;;;;;3.42;1.95;;;17.60;55.10;;;;;;5094760;28;20043;-69
2022/09/29 11:40:11;;;;;;;3.80;2.63;;;17.60;55.10;;;;;;5079552;28;20044;-69
2022/09/29 11:42:49;;;;;;;3.80;2.20;;;17.60;54.30;;;;;;5069027;28;20059;-69
2022/09/29 11:45:22;;;;;;;4.32;2.95;;;17.60;54.60;;;;;;5094678;28;20540;-69
2022/09/29 11:48:17;;;;;;;3.53;2.58;;;17.60;54.20;;;;;;5094719;28;20110;-69
2022/09/29 11:50:54;;;;;;;;;;;17.60;53.70;;;;;;5084331;28;20039;-69
2022/09/29 11:53:26;;;;;;;4.63;2.83;;;17.50;53.90;;;;;;5094646;28;19975;-69
2022/09/29 11:56:07;;;;;;;3.05;2.38;;;17.40;52.90;;;;;;5094783;28;20046;-69
2022/09/29 11:58:53;;;;;;;3.15;2.40;;;17.30;52.70;;;;;;5094628;28;20416;-69
2022/09/29 12:01:33;;;;;;;2.30;1.70;;;17.30;52.90;;;;;;5094552;28;20054;-69
2022/09/29 12:04:21;;;;;;;3.13;2.05;;;17.30;53.80;;;;;;5085743;28;20044;-69
2022/09/29 12:06:52;;;;;;;3.15;2.80;;;17.30;52.60;;;;;;5095416;28;20040;-69
2022/09/29 12:09:42;;;;;;;3.05;2.42;;;17.30;52.40;;;;;;5098666;28;20114;-67
2022/09/29 12:12:29;;;;;;;3.72;2.22;;;17.20;51.90;;;;;;5082859;28;20123;-69
2022/09/29 12:15:04;;;;;;;2.75;1.70;;;17.20;52.70;;;;;;5098493;28;20407;-69
2022/09/29 12:17:34;;;;;;;2.33;1.90;;;17.20;53.90;;;;;;5098660;28;20066;-69
2022/09/29 12:20:13;;;;;;;3.55;1.90;;;17.20;54.00;;;;;;5098024;28;20535;-69
2022/09/29 12:22:38;;;;;;;3.15;1.75;;;17.20;53.70;;;;;;5098385;28;20051;-69
2022/09/29 12:25:12;;;;;;;2.17;1.58;;;17.20;53.80;;;;;;5097810;28;20397;-69
2022/09/29 12:27:41;;;;;;;3.28;1.70;;;17.30;53.60;;;;;;5098471;28;20074;-69
2022/09/29 12:30:28;;;;;;;2.38;1.38;;;17.30;53.50;;;;;;5081163;28;20045;-69
2022/09/29 12:33:07;;;;;;;2.00;1.55;;;17.30;53.40;;;;;;5098081;28;20051;-69
2022/09/29 12:35:46;;;;;;;2.35;1.77;;;17.40;53.20;;;;;;5082634;28;20521;-69
2022/09/29 12:38:36;;;;;;;4.35;1.60;;;17.40;53.30;;;;;;5097575;28;20036;-69
2022/09/29 12:41:04;;;;;;;2.25;1.42;;;17.40;52.90;;;;;;5081271;28;20131;-69
2022/09/29 12:43:45;;;;;;;1.92;1.50;;;17.40;53.30;;;;;;5097989;28;20412;-69
2022/09/29 12:46:35;;;;;;;1.00;0.90;;;17.40;52.80;;;;;;5097635;28;20100;-69
2022/09/29 12:49:10;;;;;;;1.95;1.30;;;17.50;52.80;;;;;;5097753;28;20035;-69
2022/09/29 12:51:49;;;;;;;2.40;1.50;;;17.50;52.40;;;;;;5097665;28;20089;-69
2022/09/29 12:54:27;;;;;;;2.45;1.50;;;17.50;52.10;;;;;;5080317;28;20074;-69
2022/09/29 12:57:05;;;;;;;2.25;1.50;;;17.50;52.50;;;;;;5097538;28;20119;-69
2022/09/29 12:59:40;;;;;;;2.05;1.27;;;17.50;52.50;;;;;;5097130;28;20095;-68
2022/09/29 13:02:21;;;;;;;2.50;1.50;;;17.50;52.70;;;;;;5097455;28;20487;-68
2022/09/29 13:04:53;;;;;;;2.03;1.25;;;17.50;51.80;;;;;;5097408;28;20039;-68
2022/09/29 13:07:34;;;;;;;2.78;1.25;;;17.50;51.30;;;;;;5080434;28;20067;-68
2022/09/29 13:10:18;;;;;;;1.60;1.17;;;17.50;51.70;;;;;;5089524;28;20052;-68
2022/09/29 13:13:02;;;;;;;1.95;1.40;;;17.50;52.40;;;;;;5080533;28;20043;-68
2022/09/29 13:15:49;;;;;;;2.22;1.20;;;17.50;51.10;;;;;;5096961;28;20040;-69
2022/09/29 13:19:00;;;;;;;3.30;1.10;;;17.50;51.60;;;;;;5096650;28;20496;-69
2022/09/29 13:21:47;;;;;;;1.40;1.27;;;17.50;52.20;;;;;;5084350;28;20044;-69
2022/09/29 13:24:33;;;;;;;3.83;1.38;;;17.60;52.40;;;;;;5096747;28;20430;-69